sensor_id;sensor_type;location;lat;lon;timestamp;temperature;humidity
14769;DHT22;7476;49.404;11.152;2023-04-03T00:00:36;2.70;99.90
14769;DHT22;7476;49.404;11.152;2023-04-03T00:03:03;2.70;99.90
14769;DHT22;7476;49.404;11.152;2023-04-03T00:05:30;2.70;99.90
14769;DHT22;7476;49.404;11.152;2023-04-03T00:07:58;2.70;99.90
14769;DHT22;7476;49.404;11.152;2023-04-03T00:10:25;2.60;99.90
14769;DHT22;7476;49.404;11.152;2023-04-03T00:12:51;2.60;99.90
14769;DHT22;7476;49.404;11.152;2023-04-03T00:15:18;2.60;99.90
14769;DHT22;7476;49.404;11.152;2023-04-03T00:17:45;2.70;99.90
14769;DHT22;7476;49.404;11.152;2023-04-03T00:20:12;2.70;99.90
14769;DHT22;7476;49.404;11.152;2023-04-03T00:22:38;2.70;99.90
14769;DHT22;7476;49.404;11.152;2023-04-03T00:25:08;2.70;99.90
14769;DHT22;7476;49.404;11.152;2023-04-03T00:27:36;2.60;99.90
14769;DHT22;7476;49.404;11.152;2023-04-03T00:30:04;2.50;99.90
14769;DHT22;7476;49.404;11.152;2023-04-03T00:32:31;2.50;99.90
14769;DHT22;7476;49.404;11.152;2023-04-03T00:34:58;2.50;99.90
14769;DHT22;7476;49.404;11.152;2023-04-03T00:37:24;2.60;99.90
14769;DHT22;7476;49.404;11.152;2023-04-03T00:39:51;2.50;99.90
14769;DHT22;7476;49.404;11.152;2023-04-03T00:42:19;2.50;99.90
14769;DHT22;7476;49.404;11.152;2023-04-03T00:45:22;2.40;99.90
14769;DHT22;7476;49.404;11.152;2023-04-03T00:47:50;2.40;99.90
14769;DHT22;7476;49.404;11.152;2023-04-03T00:50:16;2.40;99.90
14769;DHT22;7476;49.404;11.152;2023-04-03T00:52:43;2.40;99.90
14769;DHT22;7476;49.404;11.152;2023-04-03T00:55:12;2.40;99.90
14769;DHT22;7476;49.404;11.152;2023-04-03T00:57:41;2.40;99.90
14769;DHT22;7476;49.404;11.152;2023-04-03T01:00:13;2.40;99.90
14769;DHT22;7476;49.404;11.152;2023-04-03T01:02:40;2.40;99.90
14769;DHT22;7476;49.404;11.152;2023-04-03T01:05:08;2.40;99.90
14769;DHT22;7476;49.404;11.152;2023-04-03T01:07:35;2.40;99.90
14769;DHT22;7476;49.404;11.152;2023-04-03T01:10:06;2.40;99.90
14769;DHT22;7476;49.404;11.152;2023-04-03T01:12:34;2.40;99.90
14769;DHT22;7476;49.404;11.152;2023-04-03T01:15:04;2.40;99.90
14769;DHT22;7476;49.404;11.152;2023-04-03T01:17:33;2.40;99.90
14769;DHT22;7476;49.404;11.152;2023-04-03T01:20:35;2.50;99.90
14769;DHT22;7476;49.404;11.152;2023-04-03T01:23:13;2.50;99.90
14769;DHT22;7476;49.404;11.152;2023-04-03T01:25:44;2.50;99.90
14769;DHT22;7476;49.404;11.152;2023-04-03T01:28:13;2.40;99.90
14769;DHT22;7476;49.404;11.152;2023-04-03T01:30:46;2.40;99.90
14769;DHT22;7476;49.404;11.152;2023-04-03T01:33:16;2.40;99.90
14769;DHT22;7476;49.404;11.152;2023-04-03T01:35:43;2.40;99.90
14769;DHT22;7476;49.404;11.152;2023-04-03T01:38:09;2.30;99.90
14769;DHT22;7476;49.404;11.152;2023-04-03T01:40:37;2.30;99.90
14769;DHT22;7476;49.404;11.152;2023-04-03T01:43:04;2.20;99.90
14769;DHT22;7476;49.404;11.152;2023-04-03T01:45:31;2.30;99.90
14769;DHT22;7476;49.404;11.152;2023-04-03T01:47:57;2.40;99.90
14769;DHT22;7476;49.404;11.152;2023-04-03T01:50:25;2.40;99.90
14769;DHT22;7476;49.404;11.152;2023-04-03T01:52:52;2.20;99.90
14769;DHT22;7476;49.404;11.152;2023-04-03T01:55:19;2.30;99.90
14769;DHT22;7476;49.404;11.152;2023-04-03T01:57:45;2.20;99.90
14769;DHT22;7476;49.404;11.152;2023-04-03T02:00:13;2.10;99.90
14769;DHT22;7476;49.404;11.152;2023-04-03T02:02:39;2.10;99.90
14769;DHT22;7476;49.404;11.152;2023-04-03T02:05:07;2.00;99.90
14769;DHT22;7476;49.404;11.152;2023-04-03T02:07:35;1.90;99.90
14769;DHT22;7476;49.404;11.152;2023-04-03T02:10:02;1.90;99.90
14769;DHT22;7476;49.404;11.152;2023-04-03T02:12:28;1.90;99.90
14769;DHT22;7476;49.404;11.152;2023-04-03T02:14:55;1.80;99.90
14769;DHT22;7476;49.404;11.152;2023-04-03T02:17:22;1.80;99.90
14769;DHT22;7476;49.404;11.152;2023-04-03T02:19:48;1.80;99.90
14769;DHT22;7476;49.404;11.152;2023-04-03T02:22:15;1.70;99.90
14769;DHT22;7476;49.404;11.152;2023-04-03T02:24:43;1.60;99.90
14769;DHT22;7476;49.404;11.152;2023-04-03T02:27:10;1.50;99.90
14769;DHT22;7476;49.404;11.152;2023-04-03T02:29:37;1.50;99.90
14769;DHT22;7476;49.404;11.152;2023-04-03T02:32:04;1.40;99.90
14769;DHT22;7476;49.404;11.152;2023-04-03T02:34:31;1.30;99.90
14769;DHT22;7476;49.404;11.152;2023-04-03T02:36:58;1.30;99.90
14769;DHT22;7476;49.404;11.152;2023-04-03T02:39:24;1.40;99.90
14769;DHT22;7476;49.404;11.152;2023-04-03T02:41:52;1.30;99.90
14769;DHT22;7476;49.404;11.152;2023-04-03T02:44:19;1.20;99.90
14769;DHT22;7476;49.404;11.152;2023-04-03T02:46:46;1.10;99.90
14769;DHT22;7476;49.404;11.152;2023-04-03T02:49:12;1.10;99.90
14769;DHT22;7476;49.404;11.152;2023-04-03T02:51:39;1.20;99.90
14769;DHT22;7476;49.404;11.152;2023-04-03T02:54:06;1.10;99.90
14769;DHT22;7476;49.404;11.152;2023-04-03T02:56:32;1.10;99.90
14769;DHT22;7476;49.404;11.152;2023-04-03T02:59:01;1.00;99.90
14769;DHT22;7476;49.404;11.152;2023-04-03T03:01:27;0.90;99.90
14769;DHT22;7476;49.404;11.152;2023-04-03T03:03:56;0.90;99.90
14769;DHT22;7476;49.404;11.152;2023-04-03T03:06:23;0.80;99.90
14769;DHT22;7476;49.404;11.152;2023-04-03T03:08:50;0.70;99.90
14769;DHT22;7476;49.404;11.152;2023-04-03T03:11:17;0.70;99.90
14769;DHT22;7476;49.404;11.152;2023-04-03T03:13:43;0.80;99.90
14769;DHT22;7476;49.404;11.152;2023-04-03T03:16:11;0.80;99.90
14769;DHT22;7476;49.404;11.152;2023-04-03T03:18:38;0.70;99.90
14769;DHT22;7476;49.404;11.152;2023-04-03T03:21:05;0.80;99.90
14769;DHT22;7476;49.404;11.152;2023-04-03T03:23:32;0.80;99.90
14769;DHT22;7476;49.404;11.152;2023-04-03T03:26:00;0.80;99.90
14769;DHT22;7476;49.404;11.152;2023-04-03T03:28:27;0.70;99.90
14769;DHT22;7476;49.404;11.152;2023-04-03T03:30:54;0.60;99.90
14769;DHT22;7476;49.404;11.152;2023-04-03T03:33:22;0.60;99.90
14769;DHT22;7476;49.404;11.152;2023-04-03T03:35:49;0.40;99.90
14769;DHT22;7476;49.404;11.152;2023-04-03T03:38:15;0.30;99.90
14769;DHT22;7476;49.404;11.152;2023-04-03T03:40:42;0.20;99.90
14769;DHT22;7476;49.404;11.152;2023-04-03T03:43:09;0.20;99.90
14769;DHT22;7476;49.404;11.152;2023-04-03T03:45:35;0.20;99.90
14769;DHT22;7476;49.404;11.152;2023-04-03T03:48:03;0.20;99.90
14769;DHT22;7476;49.404;11.152;2023-04-03T03:50:31;0.40;99.90
14769;DHT22;7476;49.404;11.152;2023-04-03T03:52:58;0.40;99.90
14769;DHT22;7476;49.404;11.152;2023-04-03T03:55:24;0.40;99.90
14769;DHT22;7476;49.404;11.152;2023-04-03T03:57:51;0.50;99.90
14769;DHT22;7476;49.404;11.152;2023-04-03T04:00:18;0.60;99.90
14769;DHT22;7476;49.404;11.152;2023-04-03T04:02:45;0.40;99.90
14769;DHT22;7476;49.404;11.152;2023-04-03T04:05:12;0.30;99.90
14769;DHT22;7476;49.404;11.152;2023-04-03T04:07:40;0.30;99.90
14769;DHT22;7476;49.404;11.152;2023-04-03T04:10:07;0.30;99.90
14769;DHT22;7476;49.404;11.152;2023-04-03T04:12:34;0.40;99.90
14769;DHT22;7476;49.404;11.152;2023-04-03T04:15:01;0.50;99.90
14769;DHT22;7476;49.404;11.152;2023-04-03T04:17:28;0.60;99.90
14769;DHT22;7476;49.404;11.152;2023-04-03T04:19:55;0.60;99.90
14769;DHT22;7476;49.404;11.152;2023-04-03T04:22:21;0.50;99.90
14769;DHT22;7476;49.404;11.152;2023-04-03T04:24:49;0.60;99.90
14769;DHT22;7476;49.404;11.152;2023-04-03T04:27:16;0.60;99.90
14769;DHT22;7476;49.404;11.152;2023-04-03T04:29:43;0.50;99.90
14769;DHT22;7476;49.404;11.152;2023-04-03T04:32:09;0.50;99.90
14769;DHT22;7476;49.404;11.152;2023-04-03T04:34:36;0.50;99.90
14769;DHT22;7476;49.404;11.152;2023-04-03T04:37:02;0.50;99.90
14769;DHT22;7476;49.404;11.152;2023-04-03T04:39:29;0.60;99.90
14769;DHT22;7476;49.404;11.152;2023-04-03T04:41:57;0.70;99.90
14769;DHT22;7476;49.404;11.152;2023-04-03T04:44:24;0.60;99.90
14769;DHT22;7476;49.404;11.152;2023-04-03T04:46:51;0.50;99.90
14769;DHT22;7476;49.404;11.152;2023-04-03T04:49:18;0.40;99.90
14769;DHT22;7476;49.404;11.152;2023-04-03T04:51:45;0.40;99.90
14769;DHT22;7476;49.404;11.152;2023-04-03T04:54:11;0.30;99.90
14769;DHT22;7476;49.404;11.152;2023-04-03T04:56:38;0.20;99.90
14769;DHT22;7476;49.404;11.152;2023-04-03T04:59:06;0.30;99.90
14769;DHT22;7476;49.404;11.152;2023-04-03T05:01:32;0.30;99.90
14769;DHT22;7476;49.404;11.152;2023-04-03T05:03:59;0.10;99.90
14769;DHT22;7476;49.404;11.152;2023-04-03T05:06:26;0.20;99.90
14769;DHT22;7476;49.404;11.152;2023-04-03T05:08:52;0.30;99.90
14769;DHT22;7476;49.404;11.152;2023-04-03T05:11:19;0.40;99.90
14769;DHT22;7476;49.404;11.152;2023-04-03T05:13:46;0.60;99.90
14769;DHT22;7476;49.404;11.152;2023-04-03T05:16:14;0.70;99.90
14769;DHT22;7476;49.404;11.152;2023-04-03T05:18:40;0.90;99.90
14769;DHT22;7476;49.404;11.152;2023-04-03T05:21:07;0.90;99.90
14769;DHT22;7476;49.404;11.152;2023-04-03T05:23:34;1.00;99.90
14769;DHT22;7476;49.404;11.152;2023-04-03T05:26:00;1.00;99.90
14769;DHT22;7476;49.404;11.152;2023-04-03T05:28:27;1.20;99.90
14769;DHT22;7476;49.404;11.152;2023-04-03T05:30:54;1.20;99.90
14769;DHT22;7476;49.404;11.152;2023-04-03T05:33:23;1.20;99.90
14769;DHT22;7476;49.404;11.152;2023-04-03T05:35:51;1.30;99.90
14769;DHT22;7476;49.404;11.152;2023-04-03T05:38:18;1.40;99.90
14769;DHT22;7476;49.404;11.152;2023-04-03T05:40:45;1.40;99.90
14769;DHT22;7476;49.404;11.152;2023-04-03T05:43:12;1.40;99.90
14769;DHT22;7476;49.404;11.152;2023-04-03T05:45:39;1.50;99.90
14769;DHT22;7476;49.404;11.152;2023-04-03T05:48:05;1.60;99.90
14769;DHT22;7476;49.404;11.152;2023-04-03T05:50:34;1.60;99.90
14769;DHT22;7476;49.404;11.152;2023-04-03T05:53:02;1.70;99.90
14769;DHT22;7476;49.404;11.152;2023-04-03T05:55:29;1.80;99.90
14769;DHT22;7476;49.404;11.152;2023-04-03T05:57:56;1.90;99.90
14769;DHT22;7476;49.404;11.152;2023-04-03T06:00:23;2.00;99.90
14769;DHT22;7476;49.404;11.152;2023-04-03T06:02:50;2.10;99.90
14769;DHT22;7476;49.404;11.152;2023-04-03T06:05:16;2.10;99.90
14769;DHT22;7476;49.404;11.152;2023-04-03T06:07:45;2.20;99.90
14769;DHT22;7476;49.404;11.152;2023-04-03T06:10:12;2.20;99.90
14769;DHT22;7476;49.404;11.152;2023-04-03T06:12:39;2.20;99.90
14769;DHT22;7476;49.404;11.152;2023-04-03T06:15:06;2.30;99.90
14769;DHT22;7476;49.404;11.152;2023-04-03T06:17:35;2.40;99.90
14769;DHT22;7476;49.404;11.152;2023-04-03T06:20:03;2.50;99.90
14769;DHT22;7476;49.404;11.152;2023-04-03T06:22:30;2.50;99.90
14769;DHT22;7476;49.404;11.152;2023-04-03T06:24:58;2.50;99.90
14769;DHT22;7476;49.404;11.152;2023-04-03T06:27:25;2.60;99.90
14769;DHT22;7476;49.404;11.152;2023-04-03T06:29:51;2.60;99.90
14769;DHT22;7476;49.404;11.152;2023-04-03T06:32:18;2.60;99.90
14769;DHT22;7476;49.404;11.152;2023-04-03T06:34:45;2.70;99.90
14769;DHT22;7476;49.404;11.152;2023-04-03T06:37:15;2.80;99.90
14769;DHT22;7476;49.404;11.152;2023-04-03T06:39:42;2.80;99.90
14769;DHT22;7476;49.404;11.152;2023-04-03T06:42:10;2.90;99.90
14769;DHT22;7476;49.404;11.152;2023-04-03T06:44:36;2.90;99.90
14769;DHT22;7476;49.404;11.152;2023-04-03T06:47:03;2.90;99.90
14769;DHT22;7476;49.404;11.152;2023-04-03T06:49:30;2.90;99.90
14769;DHT22;7476;49.404;11.152;2023-04-03T06:51:57;3.00;99.90
14769;DHT22;7476;49.404;11.152;2023-04-03T06:54:24;3.10;99.90
14769;DHT22;7476;49.404;11.152;2023-04-03T06:56:51;3.20;99.90
14769;DHT22;7476;49.404;11.152;2023-04-03T06:59:19;3.30;99.90
14769;DHT22;7476;49.404;11.152;2023-04-03T07:01:45;3.40;99.90
14769;DHT22;7476;49.404;11.152;2023-04-03T07:04:12;3.50;99.90
14769;DHT22;7476;49.404;11.152;2023-04-03T07:06:39;3.50;99.90
14769;DHT22;7476;49.404;11.152;2023-04-03T07:09:07;3.50;99.90
14769;DHT22;7476;49.404;11.152;2023-04-03T07:11:34;3.60;99.90
14769;DHT22;7476;49.404;11.152;2023-04-03T07:14:01;3.70;99.90
14769;DHT22;7476;49.404;11.152;2023-04-03T07:16:29;3.80;99.90
14769;DHT22;7476;49.404;11.152;2023-04-03T07:18:56;4.10;99.90
14769;DHT22;7476;49.404;11.152;2023-04-03T07:21:23;4.30;99.90
14769;DHT22;7476;49.404;11.152;2023-04-03T07:23:51;4.30;99.90
14769;DHT22;7476;49.404;11.152;2023-04-03T07:26:17;4.20;99.90
14769;DHT22;7476;49.404;11.152;2023-04-03T07:28:46;4.00;99.90
14769;DHT22;7476;49.404;11.152;2023-04-03T07:31:14;4.00;99.90
14769;DHT22;7476;49.404;11.152;2023-04-03T07:33:44;4.20;99.90
14769;DHT22;7476;49.404;11.152;2023-04-03T07:36:15;4.40;99.90
14769;DHT22;7476;49.404;11.152;2023-04-03T07:38:42;4.30;99.90
14769;DHT22;7476;49.404;11.152;2023-04-03T07:41:11;4.40;99.90
14769;DHT22;7476;49.404;11.152;2023-04-03T07:43:40;4.20;99.90
14769;DHT22;7476;49.404;11.152;2023-04-03T07:46:07;4.20;99.90
14769;DHT22;7476;49.404;11.152;2023-04-03T07:48:34;4.40;99.90
14769;DHT22;7476;49.404;11.152;2023-04-03T07:51:04;4.50;99.90
14769;DHT22;7476;49.404;11.152;2023-04-03T07:53:31;4.60;99.90
14769;DHT22;7476;49.404;11.152;2023-04-03T07:55:58;4.50;99.90
14769;DHT22;7476;49.404;11.152;2023-04-03T07:58:25;4.60;99.90
14769;DHT22;7476;49.404;11.152;2023-04-03T08:00:52;4.70;99.90
14769;DHT22;7476;49.404;11.152;2023-04-03T08:03:19;5.00;99.90
14769;DHT22;7476;49.404;11.152;2023-04-03T08:05:48;5.20;99.90
14769;DHT22;7476;49.404;11.152;2023-04-03T08:08:17;5.30;99.90
14769;DHT22;7476;49.404;11.152;2023-04-03T08:10:48;5.20;99.90
14769;DHT22;7476;49.404;11.152;2023-04-03T08:13:15;5.20;99.90
14769;DHT22;7476;49.404;11.152;2023-04-03T08:15:42;5.30;99.90
14769;DHT22;7476;49.404;11.152;2023-04-03T08:18:09;5.40;99.90
14769;DHT22;7476;49.404;11.152;2023-04-03T08:20:35;5.30;99.90
14769;DHT22;7476;49.404;11.152;2023-04-03T08:23:03;5.40;99.90
14769;DHT22;7476;49.404;11.152;2023-04-03T08:25:32;5.50;99.90
14769;DHT22;7476;49.404;11.152;2023-04-03T08:27:58;5.60;99.90
14769;DHT22;7476;49.404;11.152;2023-04-03T08:30:25;5.40;99.90
14769;DHT22;7476;49.404;11.152;2023-04-03T08:32:52;5.60;99.90
14769;DHT22;7476;49.404;11.152;2023-04-03T08:35:18;5.90;99.90
14769;DHT22;7476;49.404;11.152;2023-04-03T08:37:45;5.50;99.90
14769;DHT22;7476;49.404;11.152;2023-04-03T08:40:15;5.20;99.90
14769;DHT22;7476;49.404;11.152;2023-04-03T08:42:51;5.40;99.90
14769;DHT22;7476;49.404;11.152;2023-04-03T08:45:22;5.30;99.90
14769;DHT22;7476;49.404;11.152;2023-04-03T08:47:55;5.60;99.90
14769;DHT22;7476;49.404;11.152;2023-04-03T08:50:29;6.00;99.90
14769;DHT22;7476;49.404;11.152;2023-04-03T08:52:58;6.10;99.90
14769;DHT22;7476;49.404;11.152;2023-04-03T08:55:28;6.20;99.90
14769;DHT22;7476;49.404;11.152;2023-04-03T08:58:01;6.10;99.90
14769;DHT22;7476;49.404;11.152;2023-04-03T09:00:32;5.60;99.90
14769;DHT22;7476;49.404;11.152;2023-04-03T09:02:59;5.70;99.90
14769;DHT22;7476;49.404;11.152;2023-04-03T09:05:35;5.60;99.90
14769;DHT22;7476;49.404;11.152;2023-04-03T09:08:11;5.60;99.90
14769;DHT22;7476;49.404;11.152;2023-04-03T09:10:40;6.00;99.90
14769;DHT22;7476;49.404;11.152;2023-04-03T09:13:17;6.00;99.90
14769;DHT22;7476;49.404;11.152;2023-04-03T09:15:46;6.00;99.90
14769;DHT22;7476;49.404;11.152;2023-04-03T09:18:17;6.70;99.90
14769;DHT22;7476;49.404;11.152;2023-04-03T09:20:49;6.90;99.90
14769;DHT22;7476;49.404;11.152;2023-04-03T09:23:24;6.90;99.90
14769;DHT22;7476;49.404;11.152;2023-04-03T09:25:54;6.00;99.90
14769;DHT22;7476;49.404;11.152;2023-04-03T09:28:24;5.60;99.90
14769;DHT22;7476;49.404;11.152;2023-04-03T09:30:51;5.70;99.90
14769;DHT22;7476;49.404;11.152;2023-04-03T09:33:18;5.90;99.90
14769;DHT22;7476;49.404;11.152;2023-04-03T09:35:47;5.80;99.90
14769;DHT22;7476;49.404;11.152;2023-04-03T09:38:17;5.80;99.90
14769;DHT22;7476;49.404;11.152;2023-04-03T09:40:45;5.60;99.90
14769;DHT22;7476;49.404;11.152;2023-04-03T09:43:28;5.40;99.90
14769;DHT22;7476;49.404;11.152;2023-04-03T09:45:55;5.30;99.90
14769;DHT22;7476;49.404;11.152;2023-04-03T09:48:24;5.40;99.90
14769;DHT22;7476;49.404;11.152;2023-04-03T09:50:59;5.40;99.90
14769;DHT22;7476;49.404;11.152;2023-04-03T09:53:29;5.40;99.90
14769;DHT22;7476;49.404;11.152;2023-04-03T09:55:57;5.90;99.90
14769;DHT22;7476;49.404;11.152;2023-04-03T09:58:27;6.10;99.90
14769;DHT22;7476;49.404;11.152;2023-04-03T10:00:56;6.60;99.90
14769;DHT22;7476;49.404;11.152;2023-04-03T10:03:27;6.50;99.90
14769;DHT22;7476;49.404;11.152;2023-04-03T10:05:54;6.40;99.90
14769;DHT22;7476;49.404;11.152;2023-04-03T10:08:23;6.30;99.90
14769;DHT22;7476;49.404;11.152;2023-04-03T10:11:14;6.20;99.90
14769;DHT22;7476;49.404;11.152;2023-04-03T10:13:51;5.70;99.90
14769;DHT22;7476;49.404;11.152;2023-04-03T10:16:21;5.80;99.90
14769;DHT22;7476;49.404;11.152;2023-04-03T10:21:42;6.10;99.90
14769;DHT22;7476;49.404;11.152;2023-04-03T10:24:14;6.00;99.90
14769;DHT22;7476;49.404;11.152;2023-04-03T10:26:52;5.70;99.90
14769;DHT22;7476;49.404;11.152;2023-04-03T10:29:31;5.90;99.90
14769;DHT22;7476;49.404;11.152;2023-04-03T10:32:10;6.20;99.90
14769;DHT22;7476;49.404;11.152;2023-04-03T10:34:41;6.00;99.90
14769;DHT22;7476;49.404;11.152;2023-04-03T10:37:16;6.40;99.90
14769;DHT22;7476;49.404;11.152;2023-04-03T10:39:52;6.60;99.90
14769;DHT22;7476;49.404;11.152;2023-04-03T10:42:27;6.60;99.90
14769;DHT22;7476;49.404;11.152;2023-04-03T10:45:19;7.00;99.90
14769;DHT22;7476;49.404;11.152;2023-04-03T10:47:52;7.30;99.90
14769;DHT22;7476;49.404;11.152;2023-04-03T10:50:36;7.10;99.90
14769;DHT22;7476;49.404;11.152;2023-04-03T10:53:08;6.50;99.90
14769;DHT22;7476;49.404;11.152;2023-04-03T10:55:42;6.90;99.90
14769;DHT22;7476;49.404;11.152;2023-04-03T10:58:15;7.40;99.90
14769;DHT22;7476;49.404;11.152;2023-04-03T11:00:47;7.50;99.90
14769;DHT22;7476;49.404;11.152;2023-04-03T11:03:21;7.80;99.90
14769;DHT22;7476;49.404;11.152;2023-04-03T11:05:53;8.20;99.90
14769;DHT22;7476;49.404;11.152;2023-04-03T11:08:26;8.20;99.90
14769;DHT22;7476;49.404;11.152;2023-04-03T11:10:57;7.80;99.90
14769;DHT22;7476;49.404;11.152;2023-04-03T11:13:30;8.80;99.90
14769;DHT22;7476;49.404;11.152;2023-04-03T11:16:00;9.40;99.90
14769;DHT22;7476;49.404;11.152;2023-04-03T11:18:34;9.10;99.90
14769;DHT22;7476;49.404;11.152;2023-04-03T11:21:06;8.00;99.90
14769;DHT22;7476;49.404;11.152;2023-04-03T11:23:36;6.80;99.90
14769;DHT22;7476;49.404;11.152;2023-04-03T11:26:10;6.70;99.90
14769;DHT22;7476;49.404;11.152;2023-04-03T11:28:38;7.10;99.90
14769;DHT22;7476;49.404;11.152;2023-04-03T11:31:15;7.80;99.90
14769;DHT22;7476;49.404;11.152;2023-04-03T11:33:51;8.30;99.90
14769;DHT22;7476;49.404;11.152;2023-04-03T11:36:23;8.70;99.90
14769;DHT22;7476;49.404;11.152;2023-04-03T11:38:53;9.20;99.90
14769;DHT22;7476;49.404;11.152;2023-04-03T11:41:26;8.60;99.90
14769;DHT22;7476;49.404;11.152;2023-04-03T11:43:58;8.80;99.90
14769;DHT22;7476;49.404;11.152;2023-04-03T11:46:52;8.20;99.90
14769;DHT22;7476;49.404;11.152;2023-04-03T11:49:58;7.50;99.90
14769;DHT22;7476;49.404;11.152;2023-04-03T11:52:55;7.00;99.90
14769;DHT22;7476;49.404;11.152;2023-04-03T11:55:54;7.20;99.90
14769;DHT22;7476;49.404;11.152;2023-04-03T11:58:23;8.00;99.90
14769;DHT22;7476;49.404;11.152;2023-04-03T12:00:56;8.60;99.90
14769;DHT22;7476;49.404;11.152;2023-04-03T12:12:56;9.40;99.90
14769;DHT22;7476;49.404;11.152;2023-04-03T12:15:49;8.90;99.90
14769;DHT22;7476;49.404;11.152;2023-04-03T12:18:41;10.10;99.90
14769;DHT22;7476;49.404;11.152;2023-04-03T12:21:09;10.20;99.90
14769;DHT22;7476;49.404;11.152;2023-04-03T12:23:36;11.50;99.90
14769;DHT22;7476;49.404;11.152;2023-04-03T12:26:24;12.20;99.90
14769;DHT22;7476;49.404;11.152;2023-04-03T12:28:53;10.00;99.80
14769;DHT22;7476;49.404;11.152;2023-04-03T12:31:23;9.20;99.90
14769;DHT22;7476;49.404;11.152;2023-04-03T12:34:09;9.60;99.90
14769;DHT22;7476;49.404;11.152;2023-04-03T12:36:46;9.70;99.90
14769;DHT22;7476;49.404;11.152;2023-04-03T12:39:41;9.30;99.90
14769;DHT22;7476;49.404;11.152;2023-04-03T12:45:18;10.60;99.90
14769;DHT22;7476;49.404;11.152;2023-04-03T12:47:48;10.90;99.80
14769;DHT22;7476;49.404;11.152;2023-04-03T12:50:23;11.50;98.80
14769;DHT22;7476;49.404;11.152;2023-04-03T12:53:02;12.50;99.30
14769;DHT22;7476;49.404;11.152;2023-04-03T12:55:30;11.70;98.30
14769;DHT22;7476;49.404;11.152;2023-04-03T12:58:02;11.30;99.60
14769;DHT22;7476;49.404;11.152;2023-04-03T13:00:39;11.10;99.90
14769;DHT22;7476;49.404;11.152;2023-04-03T13:03:21;9.40;99.90
14769;DHT22;7476;49.404;11.152;2023-04-03T13:05:50;10.10;99.90
14769;DHT22;7476;49.404;11.152;2023-04-03T13:08:17;11.20;98.70
14769;DHT22;7476;49.404;11.152;2023-04-03T13:10:54;10.30;96.70
14769;DHT22;7476;49.404;11.152;2023-04-03T13:13:22;12.30;97.60
14769;DHT22;7476;49.404;11.152;2023-04-03T13:15:49;11.10;98.70
14769;DHT22;7476;49.404;11.152;2023-04-03T13:18:28;12.00;97.70
14769;DHT22;7476;49.404;11.152;2023-04-03T13:21:00;11.10;99.20
14769;DHT22;7476;49.404;11.152;2023-04-03T13:23:29;11.20;95.20
14769;DHT22;7476;49.404;11.152;2023-04-03T13:25:56;11.50;99.90
14769;DHT22;7476;49.404;11.152;2023-04-03T13:28:28;10.80;96.40
14769;DHT22;7476;49.404;11.152;2023-04-03T13:30:58;9.30;96.40
14769;DHT22;7476;49.404;11.152;2023-04-03T13:33:29;8.50;99.50
14769;DHT22;7476;49.404;11.152;2023-04-03T13:36:01;8.80;98.80
14769;DHT22;7476;49.404;11.152;2023-04-03T13:38:30;8.70;99.90
14769;DHT22;7476;49.404;11.152;2023-04-03T13:41:01;8.80;99.30
14769;DHT22;7476;49.404;11.152;2023-04-03T13:43:30;9.40;98.60
14769;DHT22;7476;49.404;11.152;2023-04-03T13:46:00;10.30;99.80
14769;DHT22;7476;49.404;11.152;2023-04-03T13:48:35;10.40;97.60
14769;DHT22;7476;49.404;11.152;2023-04-03T13:51:05;9.30;99.90
14769;DHT22;7476;49.404;11.152;2023-04-03T13:53:40;8.50;99.90
14769;DHT22;7476;49.404;11.152;2023-04-03T13:56:09;8.10;99.90
14769;DHT22;7476;49.404;11.152;2023-04-03T13:58:53;8.00;99.90
14769;DHT22;7476;49.404;11.152;2023-04-03T14:01:21;7.90;99.90
14769;DHT22;7476;49.404;11.152;2023-04-03T14:03:55;7.90;99.90
14769;DHT22;7476;49.404;11.152;2023-04-03T14:06:23;8.70;99.90
14769;DHT22;7476;49.404;11.152;2023-04-03T14:08:50;10.20;99.90
14769;DHT22;7476;49.404;11.152;2023-04-03T14:11:20;10.00;98.40
14769;DHT22;7476;49.404;11.152;2023-04-03T14:13:48;11.00;97.70
14769;DHT22;7476;49.404;11.152;2023-04-03T14:16:18;10.80;99.20
14769;DHT22;7476;49.404;11.152;2023-04-03T14:18:50;10.70;99.00
14769;DHT22;7476;49.404;11.152;2023-04-03T14:21:18;9.00;99.50
14769;DHT22;7476;49.404;11.152;2023-04-03T14:23:48;8.50;99.90
14769;DHT22;7476;49.404;11.152;2023-04-03T14:26:18;8.20;99.90
14769;DHT22;7476;49.404;11.152;2023-04-03T14:28:47;7.80;99.90
14769;DHT22;7476;49.404;11.152;2023-04-03T14:31:15;7.80;99.90
14769;DHT22;7476;49.404;11.152;2023-04-03T14:33:43;7.60;99.90
14769;DHT22;7476;49.404;11.152;2023-04-03T14:36:13;8.00;99.90
14769;DHT22;7476;49.404;11.152;2023-04-03T14:38:41;9.20;99.90
14769;DHT22;7476;49.404;11.152;2023-04-03T14:41:11;11.30;99.00
14769;DHT22;7476;49.404;11.152;2023-04-03T14:43:38;10.90;98.80
14769;DHT22;7476;49.404;11.152;2023-04-03T14:46:08;9.60;99.20
14769;DHT22;7476;49.404;11.152;2023-04-03T14:48:37;8.70;99.90
14769;DHT22;7476;49.404;11.152;2023-04-03T14:51:04;8.20;99.90
14769;DHT22;7476;49.404;11.152;2023-04-03T14:53:30;7.90;99.90
14769;DHT22;7476;49.404;11.152;2023-04-03T14:55:58;7.90;99.90
14769;DHT22;7476;49.404;11.152;2023-04-03T14:58:27;8.10;99.90
14769;DHT22;7476;49.404;11.152;2023-04-03T15:00:54;8.90;99.90
14769;DHT22;7476;49.404;11.152;2023-04-03T15:03:21;9.30;99.90
14769;DHT22;7476;49.404;11.152;2023-04-03T15:05:49;10.00;99.80
14769;DHT22;7476;49.404;11.152;2023-04-03T15:08:19;10.40;98.50
14769;DHT22;7476;49.404;11.152;2023-04-03T15:10:46;10.30;98.20
14769;DHT22;7476;49.404;11.152;2023-04-03T15:13:13;10.40;97.70
14769;DHT22;7476;49.404;11.152;2023-04-03T15:15:42;10.50;97.40
14769;DHT22;7476;49.404;11.152;2023-04-03T15:18:14;10.00;97.30
14769;DHT22;7476;49.404;11.152;2023-04-03T15:20:42;8.70;99.60
14769;DHT22;7476;49.404;11.152;2023-04-03T15:23:10;8.00;99.70
14769;DHT22;7476;49.404;11.152;2023-04-03T15:25:36;7.70;99.40
14769;DHT22;7476;49.404;11.152;2023-04-03T15:28:03;8.10;99.50
14769;DHT22;7476;49.404;11.152;2023-04-03T15:30:30;9.50;99.70
14769;DHT22;7476;49.404;11.152;2023-04-03T15:32:58;9.80;99.70
14769;DHT22;7476;49.404;11.152;2023-04-03T15:35:25;10.10;99.10
14769;DHT22;7476;49.404;11.152;2023-04-03T15:37:52;9.90;99.80
14769;DHT22;7476;49.404;11.152;2023-04-03T15:40:18;9.80;99.90
14769;DHT22;7476;49.404;11.152;2023-04-03T15:42:45;10.10;99.90
14769;DHT22;7476;49.404;11.152;2023-04-03T15:45:13;10.00;98.60
14769;DHT22;7476;49.404;11.152;2023-04-03T15:47:40;9.50;99.90
14769;DHT22;7476;49.404;11.152;2023-04-03T15:50:09;9.20;99.90
14769;DHT22;7476;49.404;11.152;2023-04-03T15:52:37;9.50;99.90
14769;DHT22;7476;49.404;11.152;2023-04-03T15:55:04;9.70;99.90
14769;DHT22;7476;49.404;11.152;2023-04-03T15:57:31;9.10;99.90
14769;DHT22;7476;49.404;11.152;2023-04-03T15:59:58;8.50;99.90
14769;DHT22;7476;49.404;11.152;2023-04-03T16:02:24;7.70;99.90
14769;DHT22;7476;49.404;11.152;2023-04-03T16:04:53;7.30;99.90
14769;DHT22;7476;49.404;11.152;2023-04-03T16:07:21;7.00;99.90
14769;DHT22;7476;49.404;11.152;2023-04-03T16:09:48;6.80;99.90
14769;DHT22;7476;49.404;11.152;2023-04-03T16:12:15;6.80;99.90
14769;DHT22;7476;49.404;11.152;2023-04-03T16:14:41;7.70;99.90